FDX13 GMMX-LEBL
Flight info
| Callsign | FDX13 |
|---|---|
| Flight time | N/A |
| Altitude | 320000 |
| Route | VALBA TIXAL UG850 BERUM N860 AMR Y810 ALT N851 TUKRO L129 VERSO |
| Aircraft | B737/M-VGDW/C |
Departure
| Time | 2026-05-04 21:09 |
|---|---|
| Airport | Marrakesh Menara Airport (GMMX) |
Arrival
| Time | N/A |
|---|---|
| Airport | Josep Tarradellas Barcelona-El Prat Airport (LEBL) |
| Time | Latitude | Longitude | Altitude | Speed | Heading |
|---|---|---|---|---|---|
| 2026-05-04 20:57 | 31.60362 | -8.02846 | 1527 ft | 0 kts | 185° |
| 2026-05-04 21:03 | 31.60361 | -8.02846 | 1535 ft | 1 kts | 185° |
| 2026-05-04 21:03 | 31.60358 | -8.02847 | 1535 ft | 0 kts | 185° |
| 2026-05-04 21:04 | 31.60360 | -8.02846 | 1535 ft | 2 kts | 185° |
| 2026-05-04 21:04 | 31.60377 | -8.02845 | 1527 ft | 2 kts | 185° |
| 2026-05-04 21:04 | 31.60393 | -8.02843 | 1531 ft | 2 kts | 185° |
| 2026-05-04 21:04 | 31.60410 | -8.02841 | 1528 ft | 2 kts | 185° |
| 2026-05-04 21:05 | 31.60426 | -8.02838 | 1532 ft | 2 kts | 217° |
| 2026-05-04 21:05 | 31.60435 | -8.02823 | 1526 ft | 2 kts | 277° |
| 2026-05-04 21:05 | 31.60436 | -8.02833 | 1528 ft | 3 kts | 277° |
| 2026-05-04 21:05 | 31.60442 | -8.02872 | 1526 ft | 7 kts | 283° |
| 2026-05-04 21:06 | 31.60456 | -8.02938 | 1528 ft | 10 kts | 283° |
| 2026-05-04 21:06 | 31.60467 | -8.03040 | 1532 ft | 17 kts | 274° |
| 2026-05-04 21:06 | 31.60483 | -8.03215 | 1527 ft | 26 kts | 274° |
| 2026-05-04 21:06 | 31.60503 | -8.03458 | 1522 ft | 33 kts | 276° |
| 2026-05-04 21:07 | 31.60528 | -8.03754 | 1519 ft | 40 kts | 276° |
| 2026-05-04 21:07 | 31.60557 | -8.04089 | 1518 ft | 42 kts | 276° |
| 2026-05-04 21:07 | 31.60581 | -8.04378 | 1516 ft | 27 kts | 275° |
| 2026-05-04 21:07 | 31.60605 | -8.04612 | 1514 ft | 31 kts | 278° |
| 2026-05-04 21:08 | 31.60626 | -8.04876 | 1510 ft | 33 kts | 276° |
| 2026-05-04 21:08 | 31.60649 | -8.05154 | 1507 ft | 33 kts | 275° |
| 2026-05-04 21:08 | 31.60745 | -8.05242 | 1505 ft | 20 kts | 4° |
| 2026-05-04 21:08 | 31.60816 | -8.05111 | 1506 ft | 24 kts | 86° |
| 2026-05-04 21:09 | 31.60796 | -8.04838 | 1510 ft | 61 kts | 97° |
| 2026-05-04 21:09 | 31.60729 | -8.04001 | 1517 ft | 141 kts | 96° |
| 2026-05-04 21:09 | 31.60542 | -8.02754 | 2153 ft | 159 kts | 99° |
| 2026-05-04 21:09 | 31.60216 | -8.01447 | 3026 ft | 171 kts | 105° |
| 2026-05-04 21:10 | 31.59798 | -8.00136 | 3839 ft | 173 kts | 111° |
| 2026-05-04 21:10 | 31.59263 | -7.98831 | 4369 ft | 193 kts | 110° |
| 2026-05-04 21:10 | 31.59035 | -7.97113 | 4454 ft | 235 kts | 89° |
| 2026-05-04 21:10 | 31.59123 | -7.95169 | 5314 ft | 233 kts | 77° |
| 2026-05-04 21:11 | 31.59807 | -7.93418 | 6086 ft | 247 kts | 54° |
| 2026-05-04 21:11 | 31.61071 | -7.92056 | 7001 ft | 247 kts | 37° |
| 2026-05-04 21:11 | 31.62580 | -7.90960 | 7524 ft | 265 kts | 30° |
| 2026-05-04 21:11 | 31.64192 | -7.89833 | 8227 ft | 272 kts | 36° |
| 2026-05-04 21:12 | 31.65629 | -7.88373 | 9058 ft | 276 kts | 45° |
| 2026-05-04 21:12 | 31.66831 | -7.86623 | 9829 ft | 281 kts | 52° |
| 2026-05-04 21:12 | 31.68089 | -7.84841 | 10523 ft | 285 kts | 43° |
| 2026-05-04 21:12 | 31.69611 | -7.83338 | 11259 ft | 287 kts | 31° |
| 2026-05-04 21:13 | 31.71343 | -7.82170 | 11988 ft | 288 kts | 21° |
| 2026-05-04 21:13 | 31.73229 | -7.81375 | 12720 ft | 288 kts | 10° |
| 2026-05-04 21:13 | 31.75203 | -7.80983 | 13462 ft | 288 kts | 0° |
| 2026-05-04 21:13 | 31.77209 | -7.81004 | 14178 ft | 288 kts | 349° |
| 2026-05-04 21:14 | 31.79215 | -7.81262 | 14760 ft | 296 kts | 353° |
| 2026-05-04 21:14 | 31.81307 | -7.81188 | 15144 ft | 314 kts | 2° |
| 2026-05-04 21:14 | 31.83528 | -7.80701 | 15449 ft | 335 kts | 11° |
| 2026-05-04 21:14 | 31.85804 | -7.79782 | 15680 ft | 357 kts | 20° |
| 2026-05-04 21:15 | 31.88060 | -7.78422 | 16102 ft | 372 kts | 28° |
| 2026-05-04 21:15 | 31.90212 | -7.76648 | 16613 ft | 382 kts | 36° |
| 2026-05-04 21:15 | 31.92192 | -7.74500 | 17187 ft | 391 kts | 44° |
| 2026-05-04 21:15 | 31.93949 | -7.72024 | 17788 ft | 398 kts | 52° |
| 2026-05-04 21:16 | 31.95450 | -7.69253 | 18393 ft | 404 kts | 59° |
| 2026-05-04 21:16 | 31.96754 | -7.66293 | 18935 ft | 408 kts | 61° |
| 2026-05-04 21:16 | 31.98094 | -7.63330 | 19477 ft | 412 kts | 58° |
| 2026-05-04 21:16 | 31.99627 | -7.60514 | 20015 ft | 414 kts | 51° |
| 2026-05-04 21:17 | 32.01463 | -7.57898 | 20563 ft | 415 kts | 44° |
| 2026-05-04 21:17 | 32.03527 | -7.55518 | 21088 ft | 417 kts | 40° |
| 2026-05-04 21:17 | 32.05657 | -7.53163 | 21621 ft | 421 kts | 41° |
| 2026-05-04 21:17 | 32.07668 | -7.50624 | 22139 ft | 426 kts | 47° |
| 2026-05-04 21:18 | 32.09565 | -7.47957 | 22645 ft | 430 kts | 47° |
| 2026-05-04 21:18 | 32.11535 | -7.45296 | 23148 ft | 432 kts | 45° |
| 2026-05-04 21:18 | 32.13594 | -7.42689 | 23656 ft | 436 kts | 44° |
| 2026-05-04 21:18 | 32.15662 | -7.40045 | 24075 ft | 439 kts | 45° |
| 2026-05-04 21:19 | 32.17704 | -7.37334 | 24488 ft | 443 kts | 46° |
| 2026-05-04 21:19 | 32.19761 | -7.34596 | 24890 ft | 447 kts | 45° |
| 2026-05-04 21:19 | 32.21852 | -7.31865 | 25293 ft | 450 kts | 45° |
| 2026-05-04 21:19 | 32.23967 | -7.29113 | 25682 ft | 453 kts | 45° |
| 2026-05-04 21:20 | 32.26067 | -7.26352 | 26068 ft | 457 kts | 45° |
| 2026-05-04 21:20 | 32.28193 | -7.23545 | 26447 ft | 460 kts | 45° |
| 2026-05-04 21:20 | 32.30340 | -7.20730 | 26933 ft | 460 kts | 45° |
| 2026-05-04 21:20 | 32.32491 | -7.17915 | 27454 ft | 460 kts | 44° |
| 2026-05-04 21:21 | 32.34635 | -7.15099 | 27961 ft | 460 kts | 44° |
| 2026-05-04 21:21 | 32.36772 | -7.12282 | 28437 ft | 460 kts | 44° |
| 2026-05-04 21:21 | 32.38919 | -7.09456 | 28923 ft | 460 kts | 44° |
| 2026-05-04 21:21 | 32.41058 | -7.06641 | 29387 ft | 460 kts | 44° |
| 2026-05-04 21:22 | 32.43201 | -7.03817 | 29886 ft | 460 kts | 45° |
| 2026-05-04 21:22 | 32.45313 | -7.01029 | 30335 ft | 459 kts | 45° |
| 2026-05-04 21:22 | 32.47447 | -6.98211 | 30735 ft | 459 kts | 44° |
| 2026-05-04 21:22 | 32.49587 | -6.95385 | 31086 ft | 459 kts | 44° |
| 2026-05-04 21:23 | 32.51720 | -6.92566 | 31446 ft | 460 kts | 44° |
| 2026-05-04 21:23 | 32.53856 | -6.89739 | 31788 ft | 461 kts | 44° |
| 2026-05-04 21:23 | 32.55992 | -6.86908 | 32043 ft | 460 kts | 44° |
| 2026-05-04 21:23 | 32.58127 | -6.84078 | 32040 ft | 459 kts | 44° |
| 2026-05-04 21:24 | 32.62370 | -6.78449 | 32039 ft | 456 kts | 44° |
| 2026-05-04 21:24 | 32.66593 | -6.72838 | 32050 ft | 455 kts | 44° |
| 2026-05-04 21:25 | 32.70785 | -6.67258 | 32045 ft | 455 kts | 44° |
| 2026-05-04 21:25 | 32.74986 | -6.61657 | 32057 ft | 451 kts | 44° |
| 2026-05-04 21:26 | 32.79156 | -6.56092 | 32067 ft | 450 kts | 44° |
| 2026-05-04 21:26 | 32.83314 | -6.50532 | 32062 ft | 450 kts | 44° |
| 2026-05-04 21:27 | 32.87447 | -6.44998 | 32059 ft | 449 kts | 44° |
| 2026-05-04 21:27 | 32.91595 | -6.39434 | 32066 ft | 449 kts | 44° |
| 2026-05-04 21:28 | 32.95753 | -6.33870 | 32065 ft | 449 kts | 44° |
| 2026-05-04 21:28 | 32.99891 | -6.28329 | 32066 ft | 449 kts | 44° |
| 2026-05-04 21:29 | 33.04027 | -6.22776 | 32082 ft | 446 kts | 45° |
| 2026-05-04 21:29 | 33.08148 | -6.17242 | 32083 ft | 446 kts | 45° |
| 2026-05-04 21:30 | 33.12265 | -6.11699 | 32088 ft | 446 kts | 45° |
| 2026-05-04 21:30 | 33.16372 | -6.06163 | 32081 ft | 445 kts | 45° |
| 2026-05-04 21:31 | 33.22556 | -5.97817 | 32095 ft | 460 kts | 45° |
| 2026-05-04 21:32 | 33.26874 | -5.91971 | 32101 ft | 476 kts | 45° |
| 2026-05-04 21:32 | 33.31321 | -5.85945 | 32104 ft | 490 kts | 45° |
| 2026-05-04 21:33 | 33.35896 | -5.79726 | 32104 ft | 505 kts | 45° |
| 2026-05-04 21:33 | 33.40601 | -5.73296 | 32103 ft | 519 kts | 46° |
| 2026-05-04 21:34 | 33.45389 | -5.66755 | 32106 ft | 532 kts | 45° |
| 2026-05-04 21:34 | 33.50316 | -5.60006 | 32111 ft | 544 kts | 45° |
| 2026-05-04 21:35 | 33.55314 | -5.53145 | 32110 ft | 545 kts | 45° |
| 2026-05-04 21:35 | 33.60289 | -5.46306 | 32108 ft | 543 kts | 46° |
| 2026-05-04 21:36 | 33.65217 | -5.39518 | 32107 ft | 543 kts | 46° |
| 2026-05-04 21:36 | 33.70176 | -5.32674 | 32118 ft | 543 kts | 46° |
| 2026-05-04 21:37 | 33.75126 | -5.25830 | 32121 ft | 543 kts | 46° |
| 2026-05-04 21:37 | 33.80078 | -5.18968 | 32127 ft | 543 kts | 46° |
| 2026-05-04 21:38 | 33.85039 | -5.12084 | 32147 ft | 543 kts | 46° |
| 2026-05-04 21:38 | 33.89978 | -5.05214 | 32137 ft | 543 kts | 46° |
| 2026-05-04 21:39 | 33.95114 | -4.98656 | 32139 ft | 539 kts | 38° |
| 2026-05-04 21:39 | 34.01078 | -4.93281 | 32136 ft | 533 kts | 28° |
| 2026-05-04 21:40 | 34.07282 | -4.88354 | 32127 ft | 535 kts | 32° |
| 2026-05-04 21:40 | 34.13097 | -4.82705 | 32124 ft | 537 kts | 35° |
| 2026-05-04 21:41 | 34.19056 | -4.77369 | 32111 ft | 535 kts | 32° |
| 2026-05-04 21:41 | 34.24993 | -4.71885 | 32094 ft | 537 kts | 34° |
| 2026-05-04 21:42 | 34.30938 | -4.66415 | 32098 ft | 536 kts | 32° |
| 2026-05-04 21:42 | 34.36886 | -4.60960 | 32090 ft | 537 kts | 34° |
| 2026-05-04 21:43 | 34.42821 | -4.55444 | 32090 ft | 540 kts | 33° |
| 2026-05-04 21:43 | 34.48759 | -4.49904 | 32080 ft | 540 kts | 33° |
| 2026-05-04 21:44 | 34.54718 | -4.44336 | 32083 ft | 540 kts | 33° |
| 2026-05-04 21:44 | 34.60682 | -4.38757 | 32075 ft | 540 kts | 33° |
| 2026-05-04 21:45 | 34.66635 | -4.33171 | 32090 ft | 541 kts | 33° |
| 2026-05-04 21:45 | 34.72575 | -4.27595 | 32079 ft | 543 kts | 33° |
| 2026-05-04 21:46 | 34.78555 | -4.21962 | 32063 ft | 542 kts | 33° |
| 2026-05-04 21:46 | 34.84532 | -4.16330 | 32066 ft | 542 kts | 33° |
| 2026-05-04 21:47 | 34.90504 | -4.10685 | 32061 ft | 542 kts | 33° |
| 2026-05-04 21:47 | 34.96472 | -4.05038 | 32065 ft | 543 kts | 32° |
| 2026-05-04 21:48 | 35.02407 | -3.99407 | 32067 ft | 543 kts | 33° |
| 2026-05-04 21:48 | 35.08386 | -3.93728 | 32057 ft | 543 kts | 33° |
| 2026-05-04 21:49 | 35.13344 | -3.89008 | 32055 ft | 543 kts | 33° |
| 2026-05-04 21:49 | 35.19309 | -3.83321 | 32107 ft | 544 kts | 33° |
| 2026-05-04 21:50 | 35.25316 | -3.77774 | 32069 ft | 527 kts | 31° |
| 2026-05-04 21:50 | 35.28189 | -3.75135 | 32063 ft | 506 kts | 31° |
| 2026-05-04 21:50 | 35.30935 | -3.72568 | 32033 ft | 486 kts | 31° |
| 2026-05-04 21:50 | 35.33574 | -3.70103 | 32032 ft | 468 kts | 30° |
| 2026-05-04 21:51 | 35.36126 | -3.67745 | 32032 ft | 453 kts | 30° |
| 2026-05-04 21:51 | 35.41080 | -3.63162 | 32030 ft | 446 kts | 30° |
| 2026-05-04 21:52 | 35.46011 | -3.58560 | 32048 ft | 443 kts | 30° |
| 2026-05-04 21:52 | 35.50923 | -3.53988 | 32038 ft | 442 kts | 30° |
| 2026-05-04 21:53 | 35.55796 | -3.49434 | 32032 ft | 442 kts | 30° |
| 2026-05-04 21:53 | 35.60686 | -3.44862 | 32026 ft | 442 kts | 30° |
| 2026-05-04 21:54 | 35.65584 | -3.40274 | 32028 ft | 442 kts | 30° |
| 2026-05-04 21:54 | 35.70481 | -3.35679 | 32028 ft | 443 kts | 30° |
| 2026-05-04 21:55 | 35.75357 | -3.31097 | 32029 ft | 444 kts | 30° |
| 2026-05-04 21:55 | 35.80282 | -3.26461 | 32040 ft | 445 kts | 30° |
| 2026-05-04 21:56 | 35.85200 | -3.21816 | 32034 ft | 445 kts | 31° |